GB-0380 weather

Public forecast

Using degrees Celsius for public forecast. Weather courtesy of forecast.io.

Closest aviation weather report (METAR) to North Hill Glider Field

Closest report is Exeter International Airport, 8.8 nm (16.3 km) SW. Retrieved 2020/08/11 00:50 UTC (14 minutes ago):

EGTE 110050Z 30004KT 9999 FEW005 17/16 Q1015

Closest aviation forecast (TAF) to North Hill Glider Field

Forecast is more than 12 hours old.

Closest forecast is Exeter International Airport, 8.8 nm (16.3 km) SW. Retrieved 2012/04/19 12:15 UTC (8 years ago):

TAF TAF EGTE 191401Z 1912/1924 31016KT 9999 SCT030 SCT035 PROB40 TEMPO 1915/1918 7000 SHRA BKN014